createdAt,value
2023-04-19T00:02:07.037Z,46.90
2023-04-19T00:04:38.392Z,46.52
2023-04-19T00:07:06.760Z,47.00
2023-04-19T00:09:34.388Z,47.07
2023-04-19T00:12:02.464Z,46.74
2023-04-19T00:14:30.395Z,46.84
2023-04-19T00:16:57.872Z,47.22
2023-04-19T00:19:26.134Z,46.84
2023-04-19T00:21:53.755Z,48.45
2023-04-19T00:24:21.088Z,47.89
2023-04-19T00:26:49.050Z,47.86
2023-04-19T00:29:17.872Z,48.45
2023-04-19T00:31:45.177Z,47.59
2023-04-19T00:34:12.935Z,48.03
2023-04-19T00:36:41.795Z,47.44
2023-04-19T00:39:09.395Z,46.76
2023-04-19T00:41:39.235Z,46.18
2023-04-19T00:44:06.634Z,45.44
2023-04-19T00:46:33.954Z,45.73
2023-04-19T00:49:01.599Z,45.94
2023-04-19T00:51:29.021Z,46.65
2023-04-19T00:53:56.323Z,46.32
2023-04-19T00:56:24.221Z,45.55
2023-04-19T00:58:53.959Z,45.37
2023-04-19T01:01:23.488Z,44.45
2023-04-19T01:03:51.790Z,45.01
2023-04-19T01:06:21.449Z,44.04
2023-04-19T01:08:48.850Z,44.78
2023-04-19T01:11:16.510Z,44.88
2023-04-19T01:13:44.217Z,45.12
2023-04-19T01:16:11.683Z,44.42
2023-04-19T01:18:40.833Z,44.88
2023-04-19T01:21:08.857Z,44.39
2023-04-19T01:23:36.647Z,45.85
2023-04-19T01:26:04.618Z,45.94
2023-04-19T01:28:32.120Z,46.12
2023-04-19T01:30:59.464Z,45.54
2023-04-19T01:33:27.508Z,45.38
2023-04-19T01:35:54.971Z,44.68
2023-04-19T01:38:22.299Z,45.79
2023-04-19T01:40:50.125Z,46.18
2023-04-19T01:43:17.842Z,45.76
2023-04-19T01:45:45.791Z,46.06
2023-04-19T01:48:13.397Z,46.29
2023-04-19T01:50:41.197Z,45.98
2023-04-19T01:53:08.798Z,46.18
2023-04-19T01:55:36.633Z,46.09
2023-04-19T01:58:05.066Z,46.95
2023-04-19T02:00:33.472Z,46.84
2023-04-19T02:03:04.726Z,47.19
2023-04-19T02:05:32.888Z,47.07
2023-04-19T02:08:01.737Z,46.58
2023-04-19T02:10:31.196Z,46.66
2023-04-19T02:12:58.942Z,46.66
2023-04-19T02:15:28.341Z,47.34
2023-04-19T02:17:56.030Z,47.39
2023-04-19T02:20:24.731Z,47.45
2023-04-19T02:22:52.448Z,47.59
2023-04-19T02:25:20.040Z,48.07
2023-04-19T02:27:47.691Z,48.52
2023-04-19T02:30:15.404Z,48.66
2023-04-19T02:32:42.702Z,48.82
2023-04-19T02:35:12.608Z,48.50
2023-04-19T02:37:40.280Z,47.81
2023-04-19T02:40:08.058Z,48.56
2023-04-19T02:42:36.012Z,47.88
2023-04-19T02:45:03.826Z,47.80
2023-04-19T02:47:31.300Z,48.05
2023-04-19T02:49:59.868Z,49.58
2023-04-19T02:52:27.874Z,48.87
2023-04-19T02:54:55.836Z,49.15
2023-04-19T02:57:23.910Z,49.14
2023-04-19T02:59:51.606Z,48.47
2023-04-19T03:02:20.750Z,47.84
2023-04-19T03:04:50.072Z,47.49
2023-04-19T03:07:17.805Z,48.08
2023-04-19T03:09:45.660Z,47.34
2023-04-19T03:12:13.273Z,47.95
2023-04-19T03:14:41.277Z,48.19
2023-04-19T03:17:10.008Z,47.49
2023-04-19T03:19:37.823Z,47.65
2023-04-19T03:22:06.098Z,47.76
2023-04-19T03:24:37.736Z,47.31
2023-04-19T03:27:06.789Z,47.35
2023-04-19T03:29:35.974Z,47.56
2023-04-19T03:32:03.719Z,47.97
2023-04-19T03:34:31.556Z,48.78
2023-04-19T03:36:59.854Z,49.03
2023-04-19T03:39:28.798Z,49.26
2023-04-19T03:41:57.393Z,49.85
2023-04-19T03:44:25.736Z,49.81
2023-04-19T03:46:54.263Z,49.17
2023-04-19T03:49:22.387Z,50.01
2023-04-19T03:51:50.652Z,49.71
2023-04-19T03:54:18.651Z,49.37
2023-04-19T03:56:46.882Z,49.68
2023-04-19T03:59:17.443Z,50.11
2023-04-19T04:01:46.648Z,50.00
2023-04-19T04:04:16.718Z,49.74
2023-04-19T04:06:46.394Z,50.18
2023-04-19T04:09:14.243Z,50.77
2023-04-19T04:11:42.191Z,51.12
2023-04-19T04:14:10.876Z,50.67
2023-04-19T04:16:39.044Z,50.20
2023-04-19T04:19:09.616Z,50.12
2023-04-19T04:21:38.355Z,50.69
2023-04-19T04:24:08.719Z,50.51
2023-04-19T04:26:39.583Z,50.37
2023-04-19T04:29:08.795Z,50.18
2023-04-19T04:31:37.300Z,49.81
2023-04-19T04:34:04.977Z,49.14
2023-04-19T04:36:46.549Z,49.48
2023-04-19T04:41:52.201Z,47.28
2023-04-19T04:44:22.513Z,47.53
2023-04-19T04:46:50.907Z,48.04
2023-04-19T04:49:22.498Z,46.57
2023-04-19T04:51:51.516Z,46.34
2023-04-19T04:54:20.041Z,46.99
2023-04-19T04:59:22.215Z,47.05
2023-04-19T05:01:50.865Z,47.59
2023-04-19T05:04:19.434Z,47.97
2023-04-19T05:06:47.474Z,47.66
2023-04-19T05:09:18.884Z,48.09
2023-04-19T05:11:47.530Z,48.76
2023-04-19T05:14:18.708Z,49.21
2023-04-19T05:16:59.140Z,48.76
2023-04-19T05:19:26.942Z,48.38
2023-04-19T05:21:55.823Z,48.40
2023-04-19T05:24:23.814Z,49.31
2023-04-19T05:26:52.742Z,48.50
2023-04-19T05:29:23.075Z,47.55
2023-04-19T05:31:51.947Z,47.82
2023-04-19T05:34:22.041Z,47.98
2023-04-19T05:36:51.894Z,47.77
2023-04-19T05:39:21.515Z,47.24
2023-04-19T05:41:56.034Z,46.59
2023-04-19T05:44:24.155Z,46.32
2023-04-19T05:46:52.018Z,45.93
2023-04-19T05:49:21.713Z,45.70
2023-04-19T05:52:03.528Z,45.79
2023-04-19T05:54:35.912Z,45.97
2023-04-19T05:57:04.665Z,44.60
2023-04-19T05:59:33.375Z,44.75
2023-04-19T06:02:04.608Z,45.05
2023-04-19T06:04:34.094Z,44.79
2023-04-19T06:07:02.116Z,44.25
2023-04-19T06:09:30.810Z,44.74
2023-04-19T06:11:59.079Z,44.91
2023-04-19T06:14:31.391Z,45.29
2023-04-19T06:16:59.234Z,45.78
2023-04-19T06:19:27.228Z,44.81
2023-04-19T06:21:57.739Z,45.20
2023-04-19T06:24:26.794Z,44.36
2023-04-19T06:26:56.986Z,44.36
2023-04-19T06:29:27.577Z,43.74
2023-04-19T06:31:55.536Z,43.61
2023-04-19T06:34:24.918Z,42.54
2023-04-19T06:36:53.760Z,42.44
2023-04-19T06:39:25.809Z,42.08
2023-04-19T06:41:53.924Z,41.65
2023-04-19T06:44:23.199Z,41.11
2023-04-19T06:46:52.198Z,41.50
2023-04-19T06:49:23.514Z,40.74
2023-04-19T06:51:55.094Z,40.27
2023-04-19T06:54:22.666Z,40.43
2023-04-19T06:56:51.384Z,39.80
2023-04-19T06:59:22.721Z,39.00
2023-04-19T07:01:50.772Z,38.96
2023-04-19T07:04:21.854Z,37.99
2023-04-19T07:06:50.102Z,38.24
2023-04-19T07:09:19.615Z,37.64
2023-04-19T07:11:54.547Z,38.57
2023-04-19T07:14:23.898Z,38.35
2023-04-19T07:16:54.185Z,38.29
2023-04-19T07:19:26.512Z,37.85
2023-04-19T07:21:56.140Z,38.82
2023-04-19T07:24:27.498Z,39.53
2023-04-19T07:26:58.828Z,40.97
2023-04-19T07:29:26.620Z,40.22
2023-04-19T07:31:55.691Z,40.55
2023-04-19T07:34:24.792Z,41.15
2023-04-19T07:36:52.938Z,39.75
2023-04-19T07:39:21.412Z,40.16
2023-04-19T07:41:56.514Z,40.55
2023-04-19T07:44:24.064Z,40.07
2023-04-19T07:46:53.112Z,41.17
2023-04-19T07:49:25.326Z,42.28
2023-04-19T07:51:55.758Z,41.02
2023-04-19T07:54:25.771Z,40.78
2023-04-19T07:56:53.655Z,40.15
2023-04-19T08:01:56.373Z,39.59
2023-04-19T08:04:24.691Z,38.32
2023-04-19T08:06:54.128Z,39.39
2023-04-19T08:09:22.896Z,38.38
2023-04-19T08:11:51.472Z,36.38
2023-04-19T08:14:32.261Z,38.17
2023-04-19T08:19:32.562Z,34.33
2023-04-19T08:22:01.483Z,33.68
2023-04-19T08:24:36.644Z,33.20
2023-04-19T08:27:06.071Z,33.37
2023-04-19T08:29:35.071Z,34.46
2023-04-19T08:32:15.571Z,33.38
2023-04-19T08:34:43.876Z,33.96
2023-04-19T08:37:11.591Z,35.22
2023-04-19T08:39:41.021Z,34.65
2023-04-19T08:42:18.287Z,34.45
2023-04-19T08:45:25.479Z,34.79
2023-04-19T08:48:00.679Z,35.17
2023-04-19T08:50:36.131Z,35.31
2023-04-19T08:56:03.450Z,36.86
2023-04-19T08:58:46.498Z,36.03
2023-04-19T09:01:33.600Z,38.51
2023-04-19T09:04:33.884Z,39.76
2023-04-19T09:06:56.995Z,40.59
2023-04-19T09:12:01.605Z,40.47
2023-04-19T09:14:29.460Z,41.09
2023-04-19T09:17:18.560Z,38.52
2023-04-19T09:19:52.945Z,39.18
2023-04-19T09:22:21.940Z,39.01
2023-04-19T09:27:33.518Z,38.47
2023-04-19T09:32:52.693Z,37.06
2023-04-19T09:35:23.832Z,38.58
2023-04-19T09:38:08.527Z,38.15
2023-04-19T09:40:37.860Z,37.87
2023-04-19T09:45:47.485Z,38.46
2023-04-19T09:48:15.967Z,38.30
2023-04-19T09:50:58.469Z,38.69
2023-04-19T09:53:28.718Z,39.35
2023-04-19T09:56:01.910Z,38.61
2023-04-19T09:58:49.062Z,38.42
2023-04-19T10:01:19.470Z,38.10
2023-04-19T10:03:52.839Z,38.46
2023-04-19T10:08:53.992Z,37.47
2023-04-19T10:11:44.765Z,36.97
2023-04-19T10:14:20.405Z,37.29
2023-04-19T10:16:49.067Z,38.71
2023-04-19T10:19:22.910Z,37.67
2023-04-19T10:21:51.743Z,38.55
2023-04-19T10:24:23.643Z,38.47
2023-04-19T10:27:12.475Z,38.36
2023-04-19T10:29:55.816Z,37.76
2023-04-19T10:32:30.903Z,38.70
2023-04-19T10:35:01.797Z,37.87
2023-04-19T10:37:34.485Z,38.02
2023-04-19T10:40:02.001Z,37.68
2023-04-19T10:42:56.056Z,37.22
2023-04-19T10:45:34.007Z,36.74
2023-04-19T10:48:06.405Z,37.88
2023-04-19T10:50:57.772Z,35.74
2023-04-19T10:53:44.990Z,34.60
2023-04-19T10:56:15.033Z,35.50
2023-04-19T10:59:08.418Z,35.93
2023-04-19T11:01:51.114Z,37.19
2023-04-19T11:04:27.529Z,36.31
2023-04-19T11:07:02.123Z,35.38
2023-04-19T11:12:10.990Z,35.96
2023-04-19T11:14:45.851Z,34.50
2023-04-19T11:17:16.296Z,33.92
2023-04-19T11:19:56.895Z,34.47
2023-04-19T11:22:36.323Z,34.33
2023-04-19T11:25:18.499Z,34.69
2023-04-19T11:27:55.904Z,35.96
2023-04-19T11:30:29.768Z,35.85
2023-04-19T11:33:00.860Z,35.69
2023-04-19T11:35:33.929Z,36.97
2023-04-19T11:38:05.477Z,39.03
2023-04-19T11:40:39.547Z,39.22
2023-04-19T11:43:16.644Z,40.21
2023-04-19T11:45:45.589Z,40.88
2023-04-19T11:48:18.828Z,40.98
2023-04-19T11:50:49.648Z,41.54
2023-04-19T11:53:28.582Z,41.45
2023-04-19T11:55:58.825Z,42.81
2023-04-19T11:58:32.271Z,42.83
2023-04-19T12:01:09.784Z,44.01
2023-04-19T12:03:45.764Z,41.87
2023-04-19T12:06:19.662Z,41.84
2023-04-19T12:11:24.897Z,42.95
2023-04-19T12:14:15.798Z,42.12
2023-04-19T12:16:48.719Z,42.09
2023-04-19T12:19:18.661Z,42.00
2023-04-19T12:21:52.780Z,42.63
2023-04-19T12:24:22.596Z,42.69
2023-04-19T12:29:33.087Z,41.78
2023-04-19T12:32:01.718Z,40.57
2023-04-19T12:34:36.594Z,41.46
2023-04-19T12:37:11.526Z,40.76
2023-04-19T12:39:40.949Z,40.09
2023-04-19T12:42:10.527Z,40.50
2023-04-19T12:44:41.102Z,40.09
2023-04-19T12:47:19.806Z,40.13
2023-04-19T12:49:47.751Z,39.51
2023-04-19T12:52:16.824Z,39.24
2023-04-19T12:54:45.851Z,39.74
2023-04-19T12:57:13.683Z,38.66
2023-04-19T12:59:49.816Z,37.74
2023-04-19T13:02:25.782Z,37.81
2023-04-19T13:04:54.717Z,37.75
2023-04-19T13:07:28.701Z,38.22
2023-04-19T13:09:58.812Z,37.80
2023-04-19T13:12:31.206Z,36.79
2023-04-19T13:15:06.980Z,37.28
2023-04-19T13:17:38.559Z,37.93
2023-04-19T13:20:16.963Z,41.23
2023-04-19T13:22:46.589Z,41.10
2023-04-19T13:25:19.510Z,41.86
2023-04-19T13:27:47.369Z,41.39
2023-04-19T13:30:15.565Z,41.60
2023-04-19T13:35:27.458Z,41.21
2023-04-19T13:38:01.788Z,40.57
2023-04-19T13:40:37.827Z,39.48
2023-04-19T13:43:06.445Z,40.52
2023-04-19T13:45:34.390Z,41.33
2023-04-19T13:48:09.254Z,41.12
2023-04-19T13:50:43.712Z,40.99
2023-04-19T13:53:12.679Z,42.05
2023-04-19T13:55:47.693Z,41.47
2023-04-19T13:58:19.792Z,42.57
2023-04-19T14:00:48.822Z,43.64
2023-04-19T14:03:18.653Z,43.13
2023-04-19T14:05:46.471Z,44.00
2023-04-19T14:10:52.886Z,41.78
2023-04-19T14:13:22.301Z,41.52
2023-04-19T14:15:53.234Z,42.25
2023-04-19T14:18:21.043Z,42.22
2023-04-19T14:20:49.704Z,42.60
2023-04-19T14:23:23.551Z,42.26
2023-04-19T14:25:51.670Z,41.83
2023-04-19T14:28:26.279Z,40.68
2023-04-19T14:30:57.877Z,40.96
2023-04-19T14:33:27.929Z,41.96
2023-04-19T14:35:57.563Z,42.19
2023-04-19T14:41:06.579Z,41.39
2023-04-19T14:43:39.739Z,41.05
2023-04-19T14:46:16.795Z,41.00
2023-04-19T14:48:52.581Z,41.96
2023-04-19T14:51:21.640Z,41.99
2023-04-19T14:53:56.590Z,41.55
2023-04-19T14:56:29.648Z,42.04
2023-04-19T14:59:03.614Z,42.88
2023-04-19T15:01:31.948Z,41.88
2023-04-19T15:04:00.446Z,41.78
2023-04-19T15:06:45.522Z,42.36
2023-04-19T15:09:13.985Z,42.80
2023-04-19T15:11:48.701Z,41.60
2023-04-19T15:14:17.795Z,42.34
2023-04-19T15:16:47.857Z,42.44
2023-04-19T15:19:19.905Z,42.55
2023-04-19T15:21:49.892Z,42.99
2023-04-19T15:26:52.440Z,42.03
2023-04-19T15:29:21.333Z,43.04
2023-04-19T15:31:57.777Z,42.70
2023-04-19T15:34:27.515Z,42.08
2023-04-19T15:36:57.491Z,41.58
2023-04-19T15:39:28.568Z,40.28
2023-04-19T15:41:59.689Z,40.15
2023-04-19T15:47:13.532Z,41.30
2023-04-19T15:49:43.565Z,42.28
2023-04-19T15:52:14.529Z,40.59
2023-04-19T15:54:48.081Z,40.55
2023-04-19T15:57:22.633Z,39.62
2023-04-19T15:59:54.661Z,39.19
2023-04-19T16:05:07.587Z,41.72
2023-04-19T16:07:44.124Z,40.62
2023-04-19T16:10:18.088Z,40.50
2023-04-19T16:12:49.826Z,41.64
2023-04-19T16:15:21.648Z,41.32
2023-04-19T16:17:49.860Z,41.97
2023-04-19T16:23:06.674Z,41.68
2023-04-19T16:25:42.746Z,40.98
2023-04-19T16:28:13.810Z,41.10
2023-04-19T16:30:47.736Z,41.07
2023-04-19T16:33:18.746Z,41.19
2023-04-19T16:36:00.692Z,42.42
2023-04-19T16:38:36.988Z,41.84
2023-04-19T16:41:08.010Z,40.59
2023-04-19T16:43:42.609Z,40.30
2023-04-19T16:46:11.266Z,40.51
2023-04-19T16:48:39.012Z,40.92
2023-04-19T16:51:08.049Z,40.23
2023-04-19T16:53:39.752Z,41.42
2023-04-19T16:56:07.776Z,41.30
2023-04-19T16:58:37.048Z,40.73
2023-04-19T17:01:09.290Z,40.86
2023-04-19T17:03:51.823Z,41.07
2023-04-19T17:09:15.957Z,42.72
2023-04-19T17:11:46.635Z,42.80
2023-04-19T17:14:22.074Z,43.57
2023-04-19T17:16:57.325Z,43.92
2023-04-19T17:24:56.045Z,45.49
2023-04-19T17:27:30.470Z,45.94
2023-04-19T17:30:02.122Z,45.24
2023-04-19T17:32:34.630Z,46.71
2023-04-19T17:35:05.546Z,47.52
2023-04-19T17:37:44.914Z,46.49
2023-04-19T17:42:59.607Z,48.30
2023-04-19T17:45:32.891Z,47.36
2023-04-19T17:48:02.672Z,47.47
2023-04-19T17:53:15.629Z,47.17
2023-04-19T17:55:44.321Z,47.28
2023-04-19T17:58:15.795Z,47.91
2023-04-19T18:00:53.232Z,48.73
2023-04-19T18:03:28.737Z,48.36
2023-04-19T18:05:58.266Z,47.93
2023-04-19T18:08:32.589Z,47.95
2023-04-19T18:11:07.774Z,48.91
2023-04-19T18:19:00.012Z,48.82
2023-04-19T18:21:27.491Z,48.15
2023-04-19T18:29:16.081Z,47.98
2023-04-19T18:31:59.142Z,47.70
2023-04-19T18:34:34.573Z,47.88
2023-04-19T18:37:08.809Z,47.90
2023-04-19T18:42:20.610Z,48.07
2023-04-19T18:44:57.985Z,48.63
2023-04-19T18:47:29.952Z,48.88
2023-04-19T18:50:05.420Z,48.57
2023-04-19T18:52:40.699Z,49.36
2023-04-19T18:55:13.736Z,48.77
2023-04-19T19:00:27.669Z,50.12
2023-04-19T19:02:55.715Z,50.09
2023-04-19T19:08:00.659Z,50.43
2023-04-19T19:10:58.854Z,50.58
2023-04-19T19:13:22.103Z,50.10
2023-04-19T19:16:01.640Z,49.62
2023-04-19T19:18:32.933Z,49.90
2023-04-19T19:21:04.772Z,49.99
2023-04-19T19:23:45.692Z,49.39
2023-04-19T19:26:21.002Z,50.40
2023-04-19T19:28:49.811Z,50.28
2023-04-19T19:31:17.944Z,50.65
2023-04-19T19:34:09.544Z,51.08
2023-04-19T19:36:41.501Z,51.22
2023-04-19T19:39:13.844Z,51.93
2023-04-19T19:42:05.112Z,52.04
2023-04-19T19:44:33.733Z,51.31
2023-04-19T19:47:10.142Z,50.45
2023-04-19T19:52:15.443Z,52.39
2023-04-19T19:54:45.557Z,52.29
2023-04-19T20:00:17.892Z,51.49
2023-04-19T20:05:33.057Z,51.92
2023-04-19T20:08:12.335Z,51.22
2023-04-19T20:10:44.813Z,50.97
2023-04-19T20:13:15.388Z,50.72
2023-04-19T20:18:25.957Z,51.37
2023-04-19T20:20:54.936Z,51.04
2023-04-19T20:23:23.155Z,50.78
2023-04-19T20:25:53.846Z,51.16
2023-04-19T20:28:30.983Z,52.17
2023-04-19T20:31:01.809Z,52.68
2023-04-19T20:33:31.567Z,52.45
2023-04-19T20:36:01.935Z,52.54
2023-04-19T20:41:21.614Z,51.54
2023-04-19T20:43:49.470Z,52.33
2023-04-19T20:46:26.095Z,51.89
2023-04-19T20:48:59.183Z,51.48
2023-04-19T20:51:37.277Z,52.14
2023-04-19T20:54:06.898Z,52.15
2023-04-19T20:56:35.482Z,52.44
2023-04-19T20:59:04.124Z,51.44
2023-04-19T21:01:35.605Z,52.27
2023-04-19T21:04:03.671Z,51.83
2023-04-19T21:06:37.785Z,51.82
2023-04-19T21:09:10.640Z,52.71
2023-04-19T21:11:39.127Z,52.25
2023-04-19T21:14:07.526Z,53.15
2023-04-19T21:16:37.022Z,53.94
2023-04-19T21:19:06.143Z,53.57
2023-04-19T21:21:34.586Z,52.84
2023-04-19T21:24:02.111Z,53.01
2023-04-19T21:26:29.978Z,53.29
2023-04-19T21:28:57.908Z,53.48
2023-04-19T21:31:27.666Z,53.13
2023-04-19T21:33:55.720Z,53.86
2023-04-19T21:36:23.168Z,53.58
2023-04-19T21:38:53.950Z,52.96
2023-04-19T21:41:22.477Z,53.02
2023-04-19T21:43:51.834Z,53.03
2023-04-19T21:46:22.965Z,53.90
2023-04-19T21:48:52.996Z,53.75
2023-04-19T21:51:25.635Z,53.45
2023-04-19T21:53:53.526Z,53.47
2023-04-19T21:56:21.134Z,53.89
2023-04-19T21:58:49.698Z,53.61
2023-04-19T22:01:17.639Z,54.16
2023-04-19T22:03:45.996Z,53.52
2023-04-19T22:06:17.193Z,53.33
2023-04-19T22:08:45.187Z,53.38
2023-04-19T22:11:17.353Z,53.10
2023-04-19T22:13:44.713Z,53.76
2023-04-19T22:16:12.601Z,53.54
2023-04-19T22:18:41.570Z,54.06
2023-04-19T22:21:11.980Z,54.35
2023-04-19T22:23:39.803Z,55.03
2023-04-19T22:26:07.280Z,55.34
2023-04-19T22:28:36.234Z,54.79
2023-04-19T22:31:06.289Z,55.55
2023-04-19T22:33:34.019Z,54.88
2023-04-19T22:36:02.173Z,55.72
2023-04-19T22:38:33.110Z,55.86
2023-04-19T22:41:02.194Z,55.41
2023-04-19T22:43:29.626Z,55.08
2023-04-19T22:45:59.766Z,55.68
2023-04-19T22:48:30.190Z,55.71
2023-04-19T22:50:59.117Z,55.81
2023-04-19T22:53:27.010Z,56.33
2023-04-19T22:55:54.534Z,56.14
2023-04-19T22:58:22.345Z,56.57
2023-04-19T23:00:49.989Z,55.70
2023-04-19T23:03:17.349Z,54.50
2023-04-19T23:05:45.152Z,55.57
2023-04-19T23:08:13.585Z,56.50
2023-04-19T23:10:43.779Z,56.30
2023-04-19T23:13:11.604Z,56.85
2023-04-19T23:15:39.380Z,56.13
2023-04-19T23:18:07.169Z,56.03
2023-04-19T23:20:34.731Z,56.07
2023-04-19T23:23:02.557Z,56.43
2023-04-19T23:25:30.096Z,55.95
2023-04-19T23:27:57.945Z,56.30
2023-04-19T23:30:25.860Z,56.00
2023-04-19T23:32:54.342Z,55.22
2023-04-19T23:35:22.395Z,55.20
2023-04-19T23:37:49.732Z,55.65
2023-04-19T23:40:17.009Z,55.83
2023-04-19T23:42:44.666Z,55.58
2023-04-19T23:45:12.328Z,55.22
2023-04-19T23:47:40.275Z,55.77
2023-04-19T23:50:08.272Z,57.35
2023-04-19T23:52:35.874Z,56.24
2023-04-19T23:55:03.460Z,55.11
2023-04-19T23:57:33.494Z,56.23
